Time;durP1;ratioP1;P1;durP2;ratioP2;P2;SDS_P1;SDS_P2;PMS_P1;PMS_P2;Temp;Humidity;BMP_temperature;BMP_pressure;BME280_temperature;BME280_humidity;BME280_pressure;Samples;Min_cycle;Max_cycle;Signal;HPM_P1;HPM_P2
2021/09/26 00:00:01;;;;;;;13.73;7.22;;;;;;;;;;6150579;23;20188;-89
2021/09/26 00:03:08;;;;;;;14.32;7.40;;;;;;;;;;6167212;23;20192;-89
2021/09/26 00:06:13;;;;;;;14.95;7.78;;;;;;;;;;6151748;23;20224;-90
2021/09/26 00:09:19;;;;;;;15.13;7.20;;;;;;;;;;6152114;23;20220;-91
2021/09/26 00:12:24;;;;;;;14.88;7.32;;;;;;;;;;6151773;23;20256;-90
2021/09/26 00:15:29;;;;;;;10.43;6.80;;;;;;;;;;6151237;23;20168;-91
2021/09/26 00:18:36;;;;;;;12.18;7.40;;;;;;;;;;6149360;23;20192;-89
2021/09/26 00:21:41;;;;;;;11.55;7.03;;;;;;;;;;6152068;23;20156;-90
2021/09/26 00:24:46;;;;;;;14.98;7.80;;;;;;;;;;6151259;23;20168;-90
2021/09/26 00:27:51;;;;;;;13.65;6.93;;;;;;;;;;6150403;23;20239;-91
2021/09/26 00:30:57;;;;;;;12.75;7.07;;;;;;;;;;6149294;23;20167;-91
2021/09/26 00:34:04;;;;;;;15.18;7.53;;;;;;;;;;6148499;23;20201;-91
2021/09/26 00:37:09;;;;;;;14.40;7.50;;;;;;;;;;6167642;23;20182;-89
2021/09/26 00:40:14;;;;;;;12.27;7.28;;;;;;;;;;6169054;23;20195;-89
2021/09/26 00:43:19;;;;;;;12.38;7.05;;;;;;;;;;6152341;23;20292;-90
2021/09/26 00:46:24;;;;;;;15.02;7.28;;;;;;;;;;6151600;23;20172;-89
2021/09/26 00:49:31;;;;;;;14.00;6.85;;;;;;;;;;6152952;23;20156;-91
2021/09/26 00:52:37;;;;;;;15.35;7.80;;;;;;;;;;6151061;23;20169;-89
2021/09/26 00:55:43;;;;;;;14.50;7.60;;;;;;;;;;6151673;23;20173;-89
2021/09/26 00:58:50;;;;;;;11.55;7.28;;;;;;;;;;6169543;23;20196;-89
2021/09/26 01:01:55;;;;;;;11.88;7.35;;;;;;;;;;6151788;23;20220;-88
2021/09/26 01:05:01;;;;;;;13.48;7.60;;;;;;;;;;6153044;23;20164;-89
2021/09/26 01:08:11;;;;;;;15.75;7.90;;;;;;;;;;6151908;23;20173;-90
2021/09/26 01:11:17;;;;;;;12.90;6.85;;;;;;;;;;6152167;23;20177;-89
2021/09/26 01:14:25;;;;;;;11.90;7.20;;;;;;;;;;6152672;23;20180;-89
2021/09/26 01:17:33;;;;;;;13.55;7.50;;;;;;;;;;6169261;23;20168;-89
2021/09/26 01:20:44;;;;;;;13.48;6.80;;;;;;;;;;6151575;23;20187;-89
2021/09/26 01:23:54;;;;;;;12.38;6.82;;;;;;;;;;6152066;23;20167;-90
2021/09/26 01:27:10;;;;;;;13.90;6.90;;;;;;;;;;6152655;23;20233;-91
2021/09/26 01:30:21;;;;;;;12.75;6.63;;;;;;;;;;6151909;23;20165;-88
2021/09/26 01:33:29;;;;;;;11.43;6.57;;;;;;;;;;6152917;23;20172;-89
2021/09/26 01:36:38;;;;;;;14.95;6.68;;;;;;;;;;6154833;23;20260;-90
2021/09/26 01:39:46;;;;;;;13.45;7.05;;;;;;;;;;6152025;23;20176;-88
2021/09/26 01:42:53;;;;;;;16.65;7.10;;;;;;;;;;6155251;23;20248;-88
2021/09/26 01:46:03;;;;;;;12.30;6.82;;;;;;;;;;6155054;23;20189;-91
2021/09/26 01:49:12;;;;;;;12.80;7.53;;;;;;;;;;6154725;23;20273;-91
2021/09/26 01:52:20;;;;;;;10.38;6.85;;;;;;;;;;6154578;23;20242;-90
2021/09/26 01:55:27;;;;;;;14.30;7.10;;;;;;;;;;6153555;23;20506;-89
2021/09/26 01:58:32;;;;;;;10.82;6.63;;;;;;;;;;6153358;23;20176;-90
2021/09/26 02:01:45;;;;;;;11.57;6.85;;;;;;;;;;6154248;23;20195;-90
2021/09/26 02:04:51;;;;;;;13.63;7.15;;;;;;;;;;6153570;23;20169;-90
2021/09/26 02:08:00;;;;;;;12.05;6.75;;;;;;;;;;6152962;23;20173;-90
2021/09/26 02:11:06;;;;;;;12.20;6.75;;;;;;;;;;6153296;23;20176;-90
2021/09/26 02:14:12;;;;;;;20.40;7.72;;;;;;;;;;6154087;23;20238;-90
2021/09/26 02:17:20;;;;;;;13.95;7.07;;;;;;;;;;6153578;23;20189;-90
2021/09/26 02:20:25;;;;;;;11.38;6.78;;;;;;;;;;6151605;23;20317;-91
2021/09/26 02:23:31;;;;;;;14.90;6.97;;;;;;;;;;6150500;23;20209;-88
2021/09/26 02:26:37;;;;;;;11.20;6.75;;;;;;;;;;6151099;23;20200;-90
2021/09/26 02:29:42;;;;;;;14.65;7.13;;;;;;;;;;6152617;23;20173;-90
2021/09/26 02:32:49;;;;;;;11.73;6.60;;;;;;;;;;6151134;23;20608;-90
2021/09/26 02:35:54;;;;;;;14.65;7.05;;;;;;;;;;6150852;23;20177;-91
2021/09/26 02:39:01;;;;;;;12.27;6.55;;;;;;;;;;6152165;23;20170;-91
2021/09/26 02:42:16;;;;;;;11.93;7.40;;;;;;;;;;6152016;23;20173;-88
2021/09/26 02:45:24;;;;;;;12.13;7.13;;;;;;;;;;6151076;23;20160;-90
2021/09/26 02:48:32;;;;;;;14.45;7.00;;;;;;;;;;6150748;23;20284;-91
2021/09/26 02:51:37;;;;;;;11.57;6.35;;;;;;;;;;6153208;23;20181;-92
2021/09/26 02:54:43;;;;;;;10.98;7.03;;;;;;;;;;6151969;23;20192;-91
2021/09/26 02:57:49;;;;;;;12.98;7.20;;;;;;;;;;6150726;23;20164;-88
2021/09/26 03:00:55;;;;;;;13.10;8.35;;;;;;;;;;6153591;23;20253;-91
2021/09/26 03:04:02;;;;;;;13.32;7.28;;;;;;;;;;6170317;23;20164;-90
2021/09/26 03:07:08;;;;;;;14.13;7.03;;;;;;;;;;6151412;23;20647;-90
2021/09/26 03:10:13;;;;;;;11.70;6.90;;;;;;;;;;6151252;23;20173;-90
2021/09/26 03:13:18;;;;;;;13.40;7.28;;;;;;;;;;6148725;23;20172;-90
2021/09/26 03:16:23;;;;;;;11.02;6.97;;;;;;;;;;6148792;23;20222;-91
2021/09/26 03:19:30;;;;;;;22.10;7.55;;;;;;;;;;6149950;23;20184;-90
2021/09/26 03:22:35;;;;;;;13.15;7.63;;;;;;;;;;6167593;23;20172;-92
2021/09/26 03:25:40;;;;;;;12.13;6.72;;;;;;;;;;6149711;23;20169;-92
2021/09/26 03:28:45;;;;;;;12.60;6.65;;;;;;;;;;6149363;23;20173;-91
2021/09/26 03:31:50;;;;;;;12.00;6.93;;;;;;;;;;6148539;23;20683;-90
2021/09/26 03:34:56;;;;;;;13.65;6.88;;;;;;;;;;6149864;23;20171;-90
2021/09/26 03:38:01;;;;;;;13.10;6.75;;;;;;;;;;6149220;23;20224;-90
2021/09/26 03:41:06;;;;;;;12.93;7.05;;;;;;;;;;6149168;23;20196;-91
2021/09/26 03:44:12;;;;;;;10.80;6.50;;;;;;;;;;6149307;23;20232;-91
2021/09/26 03:47:17;;;;;;;11.40;6.93;;;;;;;;;;6149830;23;20163;-91
2021/09/26 03:50:24;;;;;;;12.18;7.15;;;;;;;;;;6149361;23;20169;-89
2021/09/26 03:53:28;;;;;;;12.68;7.15;;;;;;;;;;6149868;23;20204;-90
2021/09/26 03:56:33;;;;;;;12.77;6.95;;;;;;;;;;6168909;23;20157;-91
2021/09/26 03:59:38;;;;;;;13.00;7.25;;;;;;;;;;6165991;23;20269;-89
2021/09/26 04:02:44;;;;;;;11.48;7.22;;;;;;;;;;6147922;23;20271;-90
2021/09/26 04:05:50;;;;;;;10.60;7.07;;;;;;;;;;6166584;23;20169;-90
2021/09/26 04:08:55;;;;;;;12.82;7.40;;;;;;;;;;6149583;23;20204;-89
2021/09/26 04:12:00;;;;;;;18.23;7.28;;;;;;;;;;6149565;23;20169;-91
2021/09/26 04:15:06;;;;;;;10.75;7.18;;;;;;;;;;6150637;23;20172;-90
2021/09/26 04:21:56;;;;;;;13.70;7.15;;;;;;;;;;6169102;23;20172;-90
2021/09/26 04:25:01;;;;;;;10.15;6.25;;;;;;;;;;6152586;23;20168;-89
2021/09/26 04:28:06;;;;;;;12.60;6.60;;;;;;;;;;6151796;23;20204;-91
2021/09/26 04:31:11;;;;;;;17.13;7.20;;;;;;;;;;6151660;23;20168;-90
2021/09/26 04:34:16;;;;;;;15.65;6.78;;;;;;;;;;6154141;23;20292;-89
2021/09/26 04:37:22;;;;;;;12.30;7.30;;;;;;;;;;6170747;23;20176;-90
2021/09/26 04:40:29;;;;;;;12.43;7.38;;;;;;;;;;6152092;23;20191;-89
2021/09/26 04:43:38;;;;;;;17.58;7.68;;;;;;;;;;6153427;23;20164;-90
2021/09/26 04:46:43;;;;;;;11.55;6.78;;;;;;;;;;6152762;23;20173;-90
2021/09/26 04:49:48;;;;;;;12.82;6.68;;;;;;;;;;6150317;23;20168;-91
2021/09/26 04:52:55;;;;;;;12.05;6.95;;;;;;;;;;6150530;23;20169;-89
2021/09/26 04:56:00;;;;;;;13.40;6.78;;;;;;;;;;6150076;23;20176;-91
2021/09/26 04:59:05;;;;;;;10.35;6.45;;;;;;;;;;6166578;23;20173;-90
2021/09/26 05:02:13;;;;;;;11.43;7.00;;;;;;;;;;6150170;23;20180;-91
2021/09/26 05:05:18;;;;;;;10.82;7.15;;;;;;;;;;6149205;23;20248;-91
2021/09/26 05:08:25;;;;;;;13.35;7.13;;;;;;;;;;6150991;23;20171;-90
2021/09/26 05:11:29;;;;;;;13.90;7.32;;;;;;;;;;6150331;23;20168;-91
2021/09/26 05:14:35;;;;;;;12.68;7.53;;;;;;;;;;6150163;23;20177;-90
2021/09/26 05:17:40;;;;;;;11.18;7.10;;;;;;;;;;6150247;23;20193;-90
2021/09/26 05:20:45;;;;;;;13.50;7.00;;;;;;;;;;6150633;23;20199;-91
2021/09/26 05:23:51;;;;;;;13.40;7.15;;;;;;;;;;6150177;23;20172;-92
2021/09/26 05:26:56;;;;;;;12.77;7.15;;;;;;;;;;6151006;23;20173;-91
2021/09/26 05:30:02;;;;;;;17.52;7.43;;;;;;;;;;6150500;23;20169;-90
2021/09/26 05:33:07;;;;;;;11.77;6.82;;;;;;;;;;6150379;23;20172;-91
2021/09/26 05:36:12;;;;;;;15.23;7.53;;;;;;;;;;6150993;23;20175;-90
2021/09/26 05:39:21;;;;;;;10.27;7.40;;;;;;;;;;6150699;23;20164;-92
2021/09/26 05:42:26;;;;;;;11.02;7.18;;;;;;;;;;6151551;23;20238;-91
2021/09/26 05:45:31;;;;;;;12.27;7.90;;;;;;;;;;6151966;23;20180;-91
2021/09/26 05:48:37;;;;;;;13.80;6.70;;;;;;;;;;6152397;23;20282;-90
2021/09/26 05:51:42;;;;;;;12.43;6.95;;;;;;;;;;6135366;23;20164;-91
2021/09/26 05:54:49;;;;;;;17.00;7.57;;;;;;;;;;6168548;23;20246;-90
2021/09/26 05:57:55;;;;;;;12.55;7.28;;;;;;;;;;6151539;23;20171;-90
2021/09/26 06:01:00;;;;;;;11.77;6.85;;;;;;;;;;6151232;23;20195;-90
2021/09/26 06:04:05;;;;;;;16.50;7.30;;;;;;;;;;6152065;23;20233;-90
2021/09/26 06:07:11;;;;;;;14.10;7.20;;;;;;;;;;6153300;23;20171;-87
2021/09/26 06:10:19;;;;;;;15.57;7.55;;;;;;;;;;6151373;23;20620;-90
2021/09/26 06:13:24;;;;;;;15.60;6.72;;;;;;;;;;6153355;23;20161;-90
2021/09/26 06:16:29;;;;;;;10.40;6.40;;;;;;;;;;6153679;23;20176;-92
2021/09/26 06:19:35;;;;;;;15.07;7.07;;;;;;;;;;6154273;23;20173;-89
2021/09/26 06:22:40;;;;;;;11.80;6.93;;;;;;;;;;6153043;23;20497;-91
2021/09/26 06:25:47;;;;;;;12.48;7.07;;;;;;;;;;6153531;23;20216;-90
2021/09/26 06:28:52;;;;;;;12.73;7.20;;;;;;;;;;6152677;23;20245;-89
2021/09/26 06:31:57;;;;;;;13.55;7.03;;;;;;;;;;6153766;23;20168;-89
2021/09/26 06:35:04;;;;;;;13.25;7.45;;;;;;;;;;6154796;23;20320;-87
2021/09/26 06:38:09;;;;;;;17.50;7.50;;;;;;;;;;6152585;23;20624;-90
2021/09/26 06:41:18;;;;;;;14.15;7.40;;;;;;;;;;6153117;23;20392;-89
2021/09/26 06:44:24;;;;;;;12.68;6.85;;;;;;;;;;6169568;23;20168;-90
2021/09/26 06:47:29;;;;;;;10.75;6.95;;;;;;;;;;6152781;23;20210;-89
2021/09/26 06:50:34;;;;;;;11.73;6.95;;;;;;;;;;6153119;23;20216;-90
2021/09/26 06:53:39;;;;;;;10.82;6.70;;;;;;;;;;6151712;23;20173;-90
2021/09/26 06:56:46;;;;;;;12.52;6.15;;;;;;;;;;6151786;23;20500;-90
2021/09/26 06:59:51;;;;;;;12.77;6.10;;;;;;;;;;6151266;23;20172;-91
2021/09/26 07:02:56;;;;;;;10.20;6.53;;;;;;;;;;6152327;23;20179;-91
2021/09/26 07:06:01;;;;;;;14.70;6.63;;;;;;;;;;6151678;23;20176;-89
2021/09/26 07:09:06;;;;;;;10.10;5.97;;;;;;;;;;6156181;23;20165;-91
2021/09/26 07:12:13;;;;;;;10.82;6.70;;;;;;;;;;6151926;23;20252;-90
2021/09/26 07:15:18;;;;;;;10.48;6.45;;;;;;;;;;6167503;23;20164;-91
2021/09/26 07:18:23;;;;;;;13.68;7.10;;;;;;;;;;6149107;23;20233;-89
2021/09/26 07:21:30;;;;;;;10.95;6.47;;;;;;;;;;6166780;23;20192;-89
2021/09/26 07:24:35;;;;;;;10.38;6.22;;;;;;;;;;6151481;23;20176;-91
2021/09/26 07:27:43;;;;;;;10.57;6.10;;;;;;;;;;6149976;23;20171;-90
2021/09/26 07:30:48;;;;;;;12.55;6.20;;;;;;;;;;6150226;23;20164;-90
2021/09/26 07:33:54;;;;;;;11.77;6.22;;;;;;;;;;6149055;23;20184;-91
2021/09/26 07:36:59;;;;;;;10.75;5.72;;;;;;;;;;6150597;23;20179;-88
2021/09/26 07:40:08;;;;;;;10.95;5.97;;;;;;;;;;6150748;23;20353;-91
2021/09/26 07:43:15;;;;;;;8.52;6.13;;;;;;;;;;6153820;23;20225;-89
2021/09/26 07:46:20;;;;;;;10.55;5.72;;;;;;;;;;6150731;23;20273;-91
2021/09/26 07:49:30;;;;;;;11.15;6.13;;;;;;;;;;6169440;23;20215;-91
2021/09/26 07:52:35;;;;;;;13.88;5.78;;;;;;;;;;6151282;23;20176;-90
2021/09/26 07:55:40;;;;;;;8.77;5.70;;;;;;;;;;6151972;23;20168;-90
2021/09/26 07:58:46;;;;;;;10.27;5.93;;;;;;;;;;6151234;23;20172;-88
2021/09/26 08:01:51;;;;;;;8.18;5.47;;;;;;;;;;6150764;23;20212;-90
2021/09/26 08:04:56;;;;;;;9.73;6.07;;;;;;;;;;6152163;23;20263;-90
2021/09/26 08:08:02;;;;;;;11.40;5.50;;;;;;;;;;6149372;23;20168;-88
2021/09/26 08:11:07;;;;;;;9.50;5.80;;;;;;;;;;6148354;23;20597;-90
2021/09/26 08:14:14;;;;;;;8.88;6.00;;;;;;;;;;6149307;23;20176;-88
2021/09/26 08:17:19;;;;;;;9.30;5.32;;;;;;;;;;6151876;23;20652;-90
2021/09/26 08:20:25;;;;;;;7.63;5.40;;;;;;;;;;6149960;23;20172;-90
2021/09/26 08:23:30;;;;;;;9.80;5.70;;;;;;;;;;6150274;23;20160;-87
2021/09/26 08:26:35;;;;;;;11.15;6.07;;;;;;;;;;6168165;23;20200;-90
2021/09/26 08:29:42;;;;;;;9.45;6.32;;;;;;;;;;6152098;23;20204;-88
2021/09/26 08:32:51;;;;;;;10.05;5.60;;;;;;;;;;6167093;23;20223;-89
2021/09/26 08:35:56;;;;;;;12.68;6.57;;;;;;;;;;6150917;23;20176;-92
2021/09/26 08:39:02;;;;;;;15.25;6.75;;;;;;;;;;6152007;23;20172;-90
2021/09/26 08:42:07;;;;;;;13.35;7.28;;;;;;;;;;6149690;23;20199;-90
2021/09/26 08:45:16;;;;;;;12.13;7.78;;;;;;;;;;6149846;23;20187;-86
2021/09/26 08:48:20;;;;;;;14.05;7.85;;;;;;;;;;6148439;23;20346;-89
2021/09/26 08:51:26;;;;;;;13.23;7.05;;;;;;;;;;6147330;23;20632;-89
2021/09/26 08:54:32;;;;;;;11.25;7.35;;;;;;;;;;6147409;23;20184;-90
2021/09/26 08:57:37;;;;;;;13.25;8.23;;;;;;;;;;6147535;23;20180;-90
2021/09/26 09:00:43;;;;;;;14.07;7.60;;;;;;;;;;6149010;23;20168;-90
2021/09/26 09:03:48;;;;;;;10.75;6.88;;;;;;;;;;6150131;23;20165;-91
2021/09/26 09:06:53;;;;;;;9.15;5.60;;;;;;;;;;6151159;23;20176;-91
2021/09/26 09:09:59;;;;;;;11.20;6.50;;;;;;;;;;6150481;23;20219;-90
2021/09/26 09:13:05;;;;;;;9.60;6.47;;;;;;;;;;6150375;23;20171;-90
2021/09/26 09:16:14;;;;;;;10.25;6.18;;;;;;;;;;6166085;23;20192;-89
2021/09/26 09:19:21;;;;;;;8.05;5.30;;;;;;;;;;6149890;23;20169;-88
2021/09/26 09:22:30;;;;;;;11.23;6.05;;;;;;;;;;6152137;23;20670;-90
2021/09/26 09:25:37;;;;;;;9.45;5.78;;;;;;;;;;6150008;23;20652;-90
2021/09/26 09:28:43;;;;;;;9.18;5.72;;;;;;;;;;6148342;23;20172;-88
2021/09/26 09:31:51;;;;;;;12.18;6.07;;;;;;;;;;6167844;23;20168;-89
2021/09/26 09:34:56;;;;;;;18.75;6.85;;;;;;;;;;6153312;23;20505;-91
2021/09/26 09:38:02;;;;;;;10.15;6.63;;;;;;;;;;6151321;23;20172;-91
2021/09/26 09:41:07;;;;;;;11.70;7.38;;;;;;;;;;6153690;23;20199;-90
2021/09/26 09:44:13;;;;;;;11.55;6.88;;;;;;;;;;6152427;23;20168;-88
2021/09/26 09:47:21;;;;;;;13.35;7.60;;;;;;;;;;6152051;23;20262;-90
2021/09/26 09:50:29;;;;;;;11.98;7.80;;;;;;;;;;6155006;23;20391;-89
2021/09/26 09:53:36;;;;;;;25.02;11.25;;;;;;;;;;6153416;23;20168;-89
2021/09/26 09:56:43;;;;;;;10.35;6.47;;;;;;;;;;6171284;23;20189;-91
2021/09/26 09:59:48;;;;;;;11.18;6.82;;;;;;;;;;6152870;23;20172;-90
2021/09/26 10:02:55;;;;;;;12.27;7.13;;;;;;;;;;6170628;23;20652;-91
2021/09/26 10:06:00;;;;;;;11.13;6.00;;;;;;;;;;6152860;23;20208;-89
2021/09/26 10:09:20;;;;;;;10.13;5.78;;;;;;;;;;6153649;23;20208;-88
2021/09/26 10:12:26;;;;;;;13.25;6.88;;;;;;;;;;6152599;23;20168;-91
2021/09/26 10:15:31;;;;;;;9.88;5.90;;;;;;;;;;6152261;23;20173;-92
2021/09/26 10:18:39;;;;;;;11.63;5.70;;;;;;;;;;6156168;23;20176;-89
2021/09/26 10:21:45;;;;;;;8.82;5.78;;;;;;;;;;6156346;23;20268;-89
2021/09/26 10:24:51;;;;;;;9.73;5.68;;;;;;;;;;6153154;23;20176;-88
2021/09/26 10:27:57;;;;;;;10.50;5.85;;;;;;;;;;6150894;23;20216;-90
2021/09/26 10:31:04;;;;;;;10.00;5.90;;;;;;;;;;6151979;23;20164;-90
2021/09/26 10:34:12;;;;;;;7.60;5.07;;;;;;;;;;6151786;23;20172;-88
2021/09/26 10:37:17;;;;;;;9.95;5.25;;;;;;;;;;6153059;23;20196;-90
2021/09/26 10:40:23;;;;;;;10.15;6.20;;;;;;;;;;6152569;23;20165;-89
2021/09/26 10:43:29;;;;;;;10.93;5.28;;;;;;;;;;6152117;23;20236;-90
2021/09/26 10:46:34;;;;;;;11.43;5.80;;;;;;;;;;6156011;23;20269;-90
2021/09/26 10:49:43;;;;;;;11.02;5.07;;;;;;;;;;6172402;23;20164;-91
2021/09/26 10:52:50;;;;;;;7.55;4.90;;;;;;;;;;6155749;23;20177;-89
2021/09/26 10:55:56;;;;;;;14.55;5.57;;;;;;;;;;6155131;23;20181;-90
2021/09/26 10:59:02;;;;;;;7.60;5.35;;;;;;;;;;6154500;23;20171;-90
2021/09/26 11:02:22;;;;;;;9.00;5.22;;;;;;;;;;6154659;23;20211;-90
2021/09/26 11:05:44;;;;;;;9.00;4.93;;;;;;;;;;6152403;23;20168;-90
2021/09/26 11:08:55;;;;;;;7.22;5.10;;;;;;;;;;6170362;23;20177;-91
2021/09/26 11:12:00;;;;;;;11.55;5.25;;;;;;;;;;6152901;23;20260;-92
2021/09/26 11:15:11;;;;;;;6.57;4.78;;;;;;;;;;6151902;23;20561;-89
2021/09/26 11:18:36;;;;;;;8.38;5.50;;;;;;;;;;6152461;23;20172;-92
2021/09/26 11:21:51;;;;;;;7.90;4.93;;;;;;;;;;6151545;23;20180;-90
2021/09/26 11:24:59;;;;;;;8.27;5.15;;;;;;;;;;6154610;23;20554;-91
2021/09/26 11:28:23;;;;;;;10.32;5.32;;;;;;;;;;6155608;23;20224;-91
2021/09/26 11:31:40;;;;;;;7.78;5.07;;;;;;;;;;6152132;23;20161;-92
2021/09/26 11:34:48;;;;;;;7.78;5.30;;;;;;;;;;6154768;23;20172;-91
2021/09/26 11:37:59;;;;;;;14.52;5.90;;;;;;;;;;6154155;23;20172;-90
2021/09/26 11:41:09;;;;;;;9.77;5.05;;;;;;;;;;6152662;23;20176;-90
2021/09/26 11:44:16;;;;;;;8.00;5.05;;;;;;;;;;6153878;23;20212;-92
2021/09/26 11:47:22;;;;;;;9.18;5.63;;;;;;;;;;6172093;23;20168;-88
2021/09/26 11:50:30;;;;;;;10.68;4.95;;;;;;;;;;6154056;23;20209;-90
2021/09/26 11:53:36;;;;;;;11.70;5.65;;;;;;;;;;6171541;23;20197;-91
2021/09/26 11:56:43;;;;;;;9.60;5.22;;;;;;;;;;6150441;23;20192;-90
2021/09/26 11:59:48;;;;;;;9.52;5.38;;;;;;;;;;6152371;23;20204;-89
2021/09/26 12:02:53;;;;;;;7.25;5.10;;;;;;;;;;6152812;23;20208;-89
2021/09/26 12:05:59;;;;;;;10.25;5.32;;;;;;;;;;6151177;23;20176;-90
2021/09/26 12:09:04;;;;;;;8.73;5.55;;;;;;;;;;6151377;23;20607;-90
2021/09/26 12:12:17;;;;;;;8.52;5.10;;;;;;;;;;6151851;23;20207;-89
2021/09/26 12:15:24;;;;;;;9.05;5.20;;;;;;;;;;6151898;23;20179;-91
2021/09/26 12:18:29;;;;;;;12.45;5.60;;;;;;;;;;6153003;23;20181;-92
2021/09/26 12:21:35;;;;;;;13.40;5.47;;;;;;;;;;6152357;23;20252;-91
2021/09/26 12:24:44;;;;;;;8.82;5.93;;;;;;;;;;6151268;23;20176;-93
2021/09/26 12:27:52;;;;;;;6.28;4.88;;;;;;;;;;6151569;23;20597;-91
2021/09/26 12:30:58;;;;;;;7.93;5.10;;;;;;;;;;6170944;23;20216;-89
2021/09/26 12:34:13;;;;;;;8.25;5.13;;;;;;;;;;6150656;23;20169;-89
2021/09/26 12:37:21;;;;;;;9.63;6.63;;;;;;;;;;6152671;23;20246;-90
2021/09/26 12:40:32;;;;;;;8.48;5.43;;;;;;;;;;6155054;23;20165;-90
2021/09/26 12:43:47;;;;;;;7.95;5.28;;;;;;;;;;6155017;23;20212;-89
2021/09/26 12:46:53;;;;;;;10.10;5.32;;;;;;;;;;6154019;23;20165;-90
2021/09/26 12:49:59;;;;;;;10.15;5.13;;;;;;;;;;6155197;23;20172;-91
2021/09/26 12:53:07;;;;;;;8.98;5.35;;;;;;;;;;6153215;23;20172;-90
2021/09/26 12:56:17;;;;;;;11.27;5.57;;;;;;;;;;6153375;23;20216;-90
2021/09/26 12:59:26;;;;;;;8.50;6.20;;;;;;;;;;6164466;23;20169;-91
2021/09/26 13:02:31;;;;;;;10.05;6.13;;;;;;;;;;6152303;23;20244;-91
2021/09/26 13:05:38;;;;;;;12.82;6.55;;;;;;;;;;6153419;23;20169;-92
2021/09/26 13:08:44;;;;;;;10.95;6.95;;;;;;;;;;6154776;23;20169;-91
2021/09/26 13:11:53;;;;;;;15.35;8.05;;;;;;;;;;6154628;23;20284;-92
2021/09/26 13:15:21;;;;;;;21.13;6.82;;;;;;;;;;6156571;23;20176;-90
2021/09/26 13:18:33;;;;;;;8.57;6.03;;;;;;;;;;6154804;23;20172;-92
2021/09/26 13:21:39;;;;;;;10.32;6.70;;;;;;;;;;6174820;23;20248;-91
2021/09/26 13:24:46;;;;;;;11.18;6.82;;;;;;;;;;6153932;23;20225;-92
2021/09/26 13:28:07;;;;;;;12.02;6.70;;;;;;;;;;6153820;23;20176;-92
2021/09/26 13:31:18;;;;;;;11.95;6.38;;;;;;;;;;6154729;23;20179;-91
2021/09/26 13:34:31;;;;;;;12.48;6.78;;;;;;;;;;6154600;23;20164;-93
2021/09/26 13:37:37;;;;;;;13.20;7.15;;;;;;;;;;6155117;23;20212;-92
2021/09/26 13:40:44;;;;;;;8.57;6.03;;;;;;;;;;6153455;23;20175;-93
2021/09/26 13:44:03;;;;;;;13.65;6.60;;;;;;;;;;6155304;23;20199;-92
2021/09/26 13:47:08;;;;;;;7.65;5.35;;;;;;;;;;6152751;23;20485;-91
2021/09/26 13:50:15;;;;;;;13.77;5.20;;;;;;;;;;6154154;23;20619;-90
2021/09/26 13:53:22;;;;;;;7.97;5.90;;;;;;;;;;6152796;23;20223;-91
2021/09/26 13:56:28;;;;;;;10.35;6.05;;;;;;;;;;6152643;23;20167;-92
2021/09/26 13:59:39;;;;;;;14.40;6.10;;;;;;;;;;6154352;23;20175;-91
2021/09/26 14:02:44;;;;;;;7.47;5.72;;;;;;;;;;6156213;23;20215;-90
2021/09/26 14:05:53;;;;;;;8.43;6.05;;;;;;;;;;6154990;23;20220;-89
2021/09/26 14:08:58;;;;;;;8.48;5.78;;;;;;;;;;6157752;23;20175;-92
2021/09/26 14:12:04;;;;;;;10.73;6.28;;;;;;;;;;6156125;23;20160;-89
2021/09/26 14:15:17;;;;;;;9.63;5.88;;;;;;;;;;6155243;23;20320;-91
2021/09/26 14:18:23;;;;;;;11.38;5.93;;;;;;;;;;6155098;23;20214;-92
2021/09/26 14:21:29;;;;;;;11.02;6.28;;;;;;;;;;6156271;23;20249;-91
2021/09/26 14:24:36;;;;;;;12.35;6.63;;;;;;;;;;6156237;23;20156;-91
2021/09/26 14:27:42;;;;;;;11.13;6.05;;;;;;;;;;6156971;23;20213;-92
2021/09/26 14:30:52;;;;;;;9.98;5.57;;;;;;;;;;6156424;23;20192;-91
2021/09/26 14:34:01;;;;;;;11.85;5.40;;;;;;;;;;6157849;23;20509;-91
2021/09/26 14:37:07;;;;;;;11.38;5.45;;;;;;;;;;6139385;23;20168;-90
2021/09/26 14:40:15;;;;;;;9.38;5.53;;;;;;;;;;6155110;23;20176;-92
2021/09/26 14:43:21;;;;;;;10.05;5.47;;;;;;;;;;6157829;23;20192;-89
2021/09/26 14:46:33;;;;;;;9.27;5.30;;;;;;;;;;6155651;23;20175;-89
2021/09/26 14:49:39;;;;;;;8.55;5.57;;;;;;;;;;6138852;23;20236;-91
2021/09/26 14:52:45;;;;;;;13.75;6.07;;;;;;;;;;6157860;23;20176;-92
2021/09/26 14:55:55;;;;;;;9.10;5.60;;;;;;;;;;6154676;23;20172;-92
2021/09/26 14:59:02;;;;;;;10.35;5.85;;;;;;;;;;6157428;23;20289;-90
2021/09/26 15:02:12;;;;;;;10.52;5.43;;;;;;;;;;6158189;23;20632;-91
2021/09/26 15:05:18;;;;;;;9.85;5.65;;;;;;;;;;6158230;23;20193;-92
2021/09/26 15:08:28;;;;;;;19.77;10.35;;;;;;;;;;6159570;23;20225;-92
2021/09/26 15:11:34;;;;;;;8.98;5.35;;;;;;;;;;6157528;23;20164;-92
2021/09/26 15:14:40;;;;;;;12.60;5.72;;;;;;;;;;6156707;23;20611;-91
2021/09/26 15:17:46;;;;;;;13.65;5.75;;;;;;;;;;6156904;23;20212;-91
2021/09/26 15:20:52;;;;;;;12.52;5.53;;;;;;;;;;6157805;23;20172;-90
2021/09/26 15:27:25;;;;;;;7.88;4.55;;;;;;;;;;6157681;23;20213;-92
2021/09/26 15:30:32;;;;;;;8.55;5.03;;;;;;;;;;6158711;23;20156;-90
2021/09/26 15:33:40;;;;;;;9.45;6.65;;;;;;;;;;6159373;23;20193;-91
2021/09/26 15:36:47;;;;;;;8.30;5.32;;;;;;;;;;6156564;23;20276;-89
2021/09/26 15:39:53;;;;;;;13.18;6.28;;;;;;;;;;6157184;23;20176;-91
2021/09/26 15:42:59;;;;;;;8.82;5.47;;;;;;;;;;6156499;23;20235;-90
2021/09/26 15:46:05;;;;;;;9.82;5.50;;;;;;;;;;6156557;23;20251;-90
2021/09/26 15:49:12;;;;;;;11.32;5.43;;;;;;;;;;6155750;23;20168;-91
2021/09/26 15:52:18;;;;;;;8.32;5.43;;;;;;;;;;6155496;23;20177;-93
2021/09/26 15:55:32;;;;;;;10.27;4.90;;;;;;;;;;6156832;23;20204;-91
2021/09/26 15:58:37;;;;;;;10.05;5.70;;;;;;;;;;6157863;23;20172;-90
2021/09/26 16:01:42;;;;;;;14.70;5.43;;;;;;;;;;6154890;23;20715;-91
2021/09/26 16:05:02;;;;;;;10.05;5.72;;;;;;;;;;6152614;23;20238;-90
2021/09/26 17:10:13;;;;;;;15.68;7.47;;;;;;;;;;6114540;23;20249;-91
2021/09/26 17:13:18;;;;;;;15.32;7.18;;;;;;;;;;6113313;23;20210;-89
2021/09/26 17:16:25;;;;;;;12.77;7.50;;;;;;;;;;6114365;23;20228;-90
2021/09/26 17:19:31;;;;;;;14.73;7.05;;;;;;;;;;6095382;23;20231;-90
2021/09/26 17:22:36;;;;;;;14.27;6.93;;;;;;;;;;6115235;23;20166;-89
2021/09/26 17:25:44;;;;;;;11.00;6.60;;;;;;;;;;6098938;23;20228;-92
2021/09/26 17:28:49;;;;;;;14.65;7.40;;;;;;;;;;6115937;23;20263;-91
2021/09/26 17:31:55;;;;;;;16.05;7.30;;;;;;;;;;6099056;23;20241;-91
2021/09/26 17:35:05;;;;;;;13.38;7.85;;;;;;;;;;6096842;23;20184;-90
2021/09/26 17:38:11;;;;;;;16.02;7.82;;;;;;;;;;6114979;23;20170;-90
2021/09/26 17:41:17;;;;;;;12.07;6.97;;;;;;;;;;6114144;23;20165;-92
2021/09/26 17:44:25;;;;;;;11.38;7.20;;;;;;;;;;6115774;23;20197;-90
2021/09/26 17:47:30;;;;;;;14.82;7.65;;;;;;;;;;6114891;23;20154;-90
2021/09/26 17:50:37;;;;;;;15.93;7.93;;;;;;;;;;6114281;23;20247;-90
2021/09/26 17:53:43;;;;;;;16.30;6.97;;;;;;;;;;6114303;23;20165;-89
2021/09/26 17:56:50;;;;;;;13.65;8.23;;;;;;;;;;6114004;23;20174;-90
2021/09/26 17:59:56;;;;;;;18.08;8.55;;;;;;;;;;6114661;23;20610;-90
2021/09/26 18:03:02;;;;;;;13.48;7.50;;;;;;;;;;6098677;23;20158;-91
2021/09/26 18:06:07;;;;;;;13.80;7.60;;;;;;;;;;6114465;23;20240;-91
2021/09/26 18:09:20;;;;;;;17.00;8.52;;;;;;;;;;6115075;23;20201;-89
2021/09/26 18:12:27;;;;;;;22.92;13.52;;;;;;;;;;6117792;23;20161;-91
2021/09/26 18:15:32;;;;;;;18.35;10.32;;;;;;;;;;6114581;23;20194;-91
2021/09/26 18:18:38;;;;;;;15.93;10.40;;;;;;;;;;6115119;23;20173;-91
2021/09/26 18:21:46;;;;;;;16.48;8.82;;;;;;;;;;6097392;23;20626;-93
2021/09/26 18:24:52;;;;;;;16.58;8.65;;;;;;;;;;6114189;23;20233;-91
2021/09/26 18:28:00;;;;;;;21.27;9.68;;;;;;;;;;6114490;23;20173;-89
2021/09/26 18:31:06;;;;;;;17.75;8.68;;;;;;;;;;6113347;23;20242;-91
2021/09/26 18:34:13;;;;;;;18.70;9.82;;;;;;;;;;6113644;23;20177;-92
2021/09/26 18:37:19;;;;;;;13.88;8.10;;;;;;;;;;6112680;23;20178;-91
2021/09/26 18:40:25;;;;;;;15.75;7.68;;;;;;;;;;6097177;23;20238;-90
2021/09/26 18:43:33;;;;;;;14.63;7.15;;;;;;;;;;6111941;23;20192;-91
2021/09/26 18:46:41;;;;;;;17.98;10.57;;;;;;;;;;6113789;23;20165;-91
2021/09/26 18:49:48;;;;;;;24.23;8.82;;;;;;;;;;6112652;23;20626;-93
2021/09/26 18:52:54;;;;;;;15.07;8.30;;;;;;;;;;6112331;23;20174;-92
2021/09/26 18:55:59;;;;;;;16.35;8.90;;;;;;;;;;6113527;23;20254;-91
2021/09/26 18:59:07;;;;;;;13.90;8.55;;;;;;;;;;6097550;23;20218;-92
2021/09/26 19:02:14;;;;;;;17.05;8.75;;;;;;;;;;6115350;23;20226;-91
2021/09/26 19:05:21;;;;;;;14.15;8.57;;;;;;;;;;6113599;23;20194;-90
2021/09/26 19:08:32;;;;;;;15.70;8.93;;;;;;;;;;6112359;23;20185;-91
2021/09/26 19:11:37;;;;;;;16.50;9.15;;;;;;;;;;6113397;23;20173;-90
2021/09/26 19:14:46;;;;;;;16.25;9.30;;;;;;;;;;6113799;23;20182;-94
2021/09/26 19:17:51;;;;;;;16.08;9.18;;;;;;;;;;6097213;23;20185;-91
2021/09/26 19:20:57;;;;;;;19.60;10.43;;;;;;;;;;6113722;23;20677;-91
2021/09/26 19:24:02;;;;;;;19.85;10.15;;;;;;;;;;6097306;23;20186;-91
2021/09/26 19:27:08;;;;;;;19.17;9.25;;;;;;;;;;6117569;23;20237;-90
2021/09/26 19:30:19;;;;;;;17.42;9.30;;;;;;;;;;6116841;23;20622;-92
2021/09/26 19:33:24;;;;;;;18.20;10.63;;;;;;;;;;6115709;23;20174;-90
2021/09/26 19:36:30;;;;;;;17.45;9.23;;;;;;;;;;6115064;23;20292;-90